Froid, Montana
Current Conditions -  °F | °C
As of 3:52 AM on Friday 31 Oct 2014 (Local Time) from KISN Reporting Station
Overcast Overcast  
Wind Chill: -7°   Ceiling: 1400
Heat Index: -1°   Visibility: 10mi
Dew Point: -5°   Wind: 13mph
Humidity: 75%   Direction: 150°SSE
Pressure: 30.41"   Gusts: NA
Location:  48.33°N, 104.5°W
Report Text: KISN 310952Z AUTO 15011KT 10SM OVC014 M01/M05 A3041 RMK AO2 SLP321 T10111050
Loading
Personal Weather Stations






























Interactive Weather Map
Tropical Storm Tracking
New forecast layout! Learn more

10-Day Weather Forecast

Advertisements
Track Severe Weather on mobile